sensor_id;sensor_type;location;lat;lon;timestamp;P1;durP1;ratioP1;P2;durP2;ratioP2
1350;SDS011;669;50.206;9.998;2023-03-30T00:01:35;1.60;;;1.50;;
1350;SDS011;669;50.206;9.998;2023-03-30T00:04:03;1.70;;;1.60;;
1350;SDS011;669;50.206;9.998;2023-03-30T00:06:31;1.60;;;1.50;;
1350;SDS011;669;50.206;9.998;2023-03-30T00:08:59;2.10;;;1.90;;
1350;SDS011;669;50.206;9.998;2023-03-30T00:11:31;1.50;;;1.40;;
1350;SDS011;669;50.206;9.998;2023-03-30T00:13:59;2.33;;;1.80;;
1350;SDS011;669;50.206;9.998;2023-03-30T00:16:28;1.73;;;1.63;;
1350;SDS011;669;50.206;9.998;2023-03-30T00:18:57;3.90;;;2.07;;
1350;SDS011;669;50.206;9.998;2023-03-30T00:21:25;1.60;;;1.50;;
1350;SDS011;669;50.206;9.998;2023-03-30T00:23:54;2.37;;;1.87;;
1350;SDS011;669;50.206;9.998;2023-03-30T00:26:22;3.00;;;1.77;;
1350;SDS011;669;50.206;9.998;2023-03-30T00:28:50;1.90;;;1.80;;
1350;SDS011;669;50.206;9.998;2023-03-30T00:31:17;1.97;;;1.87;;
1350;SDS011;669;50.206;9.998;2023-03-30T00:33:45;1.23;;;1.23;;
1350;SDS011;669;50.206;9.998;2023-03-30T00:36:15;2.50;;;1.70;;
1350;SDS011;669;50.206;9.998;2023-03-30T00:38:43;2.07;;;1.53;;
1350;SDS011;669;50.206;9.998;2023-03-30T00:41:13;2.97;;;1.93;;
1350;SDS011;669;50.206;9.998;2023-03-30T00:43:55;2.57;;;2.37;;
1350;SDS011;669;50.206;9.998;2023-03-30T00:46:25;1.40;;;1.40;;
1350;SDS011;669;50.206;9.998;2023-03-30T00:48:53;1.90;;;1.80;;
1350;SDS011;669;50.206;9.998;2023-03-30T00:51:25;2.10;;;1.90;;
1350;SDS011;669;50.206;9.998;2023-03-30T00:53:55;2.60;;;2.40;;
1350;SDS011;669;50.206;9.998;2023-03-30T00:56:28;2.07;;;1.83;;
1350;SDS011;669;50.206;9.998;2023-03-30T00:58:57;2.20;;;2.00;;
1350;SDS011;669;50.206;9.998;2023-03-30T01:01:26;1.43;;;1.33;;
1350;SDS011;669;50.206;9.998;2023-03-30T01:04:04;2.10;;;1.90;;
1350;SDS011;669;50.206;9.998;2023-03-30T01:06:35;1.90;;;1.77;;
1350;SDS011;669;50.206;9.998;2023-03-30T01:09:05;2.00;;;1.90;;
1350;SDS011;669;50.206;9.998;2023-03-30T01:11:34;2.43;;;2.07;;
1350;SDS011;669;50.206;9.998;2023-03-30T01:14:02;1.97;;;1.83;;
1350;SDS011;669;50.206;9.998;2023-03-30T01:16:34;1.50;;;1.50;;
1350;SDS011;669;50.206;9.998;2023-03-30T01:19:16;1.97;;;1.87;;
1350;SDS011;669;50.206;9.998;2023-03-30T01:22:20;4.30;;;2.20;;
1350;SDS011;669;50.206;9.998;2023-03-30T01:25:08;2.17;;;1.80;;
1350;SDS011;669;50.206;9.998;2023-03-30T01:27:56;1.93;;;1.77;;
1350;SDS011;669;50.206;9.998;2023-03-30T01:30:40;1.70;;;1.60;;
1350;SDS011;669;50.206;9.998;2023-03-30T01:33:26;2.30;;;1.70;;
1350;SDS011;669;50.206;9.998;2023-03-30T01:36:22;2.10;;;1.90;;
1350;SDS011;669;50.206;9.998;2023-03-30T01:39:20;1.60;;;1.50;;
1350;SDS011;669;50.206;9.998;2023-03-30T01:41:55;2.00;;;1.90;;
1350;SDS011;669;50.206;9.998;2023-03-30T01:44:29;2.00;;;1.90;;
1350;SDS011;669;50.206;9.998;2023-03-30T01:47:03;1.97;;;1.80;;
1350;SDS011;669;50.206;9.998;2023-03-30T01:49:36;1.77;;;1.63;;
1350;SDS011;669;50.206;9.998;2023-03-30T01:52:11;1.97;;;1.77;;
1350;SDS011;669;50.206;9.998;2023-03-30T01:54:46;2.00;;;1.77;;
1350;SDS011;669;50.206;9.998;2023-03-30T01:57:17;1.60;;;1.50;;
1350;SDS011;669;50.206;9.998;2023-03-30T01:59:49;2.00;;;1.90;;
1350;SDS011;669;50.206;9.998;2023-03-30T02:02:22;1.70;;;1.60;;
1350;SDS011;669;50.206;9.998;2023-03-30T02:04:53;5.13;;;2.30;;
1350;SDS011;669;50.206;9.998;2023-03-30T02:07:25;1.70;;;1.60;;
1350;SDS011;669;50.206;9.998;2023-03-30T02:09:59;4.50;;;1.77;;
1350;SDS011;669;50.206;9.998;2023-03-30T02:12:31;1.70;;;1.60;;
1350;SDS011;669;50.206;9.998;2023-03-30T02:15:00;2.27;;;1.80;;
1350;SDS011;669;50.206;9.998;2023-03-30T02:17:30;2.03;;;1.80;;
1350;SDS011;669;50.206;9.998;2023-03-30T02:19:59;2.33;;;2.13;;
1350;SDS011;669;50.206;9.998;2023-03-30T02:22:27;2.03;;;1.90;;
1350;SDS011;669;50.206;9.998;2023-03-30T02:24:56;1.80;;;1.70;;
1350;SDS011;669;50.206;9.998;2023-03-30T02:27:27;4.40;;;1.50;;
1350;SDS011;669;50.206;9.998;2023-03-30T02:29:57;2.17;;;2.00;;
1350;SDS011;669;50.206;9.998;2023-03-30T02:32:25;1.80;;;1.70;;
1350;SDS011;669;50.206;9.998;2023-03-30T02:35:00;3.97;;;2.30;;
1350;SDS011;669;50.206;9.998;2023-03-30T02:37:40;1.70;;;1.60;;
1350;SDS011;669;50.206;9.998;2023-03-30T02:40:20;2.10;;;2.00;;
1350;SDS011;669;50.206;9.998;2023-03-30T02:46:00;1.70;;;1.60;;
1350;SDS011;669;50.206;9.998;2023-03-30T02:48:44;1.80;;;1.70;;
1350;SDS011;669;50.206;9.998;2023-03-30T02:51:24;1.73;;;1.63;;
1350;SDS011;669;50.206;9.998;2023-03-30T02:54:03;2.20;;;2.00;;
1350;SDS011;669;50.206;9.998;2023-03-30T02:56:39;2.10;;;1.50;;
1350;SDS011;669;50.206;9.998;2023-03-30T02:59:16;3.13;;;1.80;;
1350;SDS011;669;50.206;9.998;2023-03-30T03:01:47;1.70;;;1.60;;
1350;SDS011;669;50.206;9.998;2023-03-30T03:04:18;2.87;;;1.77;;
1350;SDS011;669;50.206;9.998;2023-03-30T03:06:48;1.80;;;1.70;;
1350;SDS011;669;50.206;9.998;2023-03-30T03:09:18;1.80;;;1.70;;
1350;SDS011;669;50.206;9.998;2023-03-30T03:11:46;1.80;;;1.57;;
1350;SDS011;669;50.206;9.998;2023-03-30T03:14:15;2.33;;;1.60;;
1350;SDS011;669;50.206;9.998;2023-03-30T03:16:43;2.77;;;1.57;;
1350;SDS011;669;50.206;9.998;2023-03-30T03:19:11;2.03;;;1.93;;
1350;SDS011;669;50.206;9.998;2023-03-30T03:21:41;2.17;;;1.90;;
1350;SDS011;669;50.206;9.998;2023-03-30T03:24:10;2.23;;;1.87;;
1350;SDS011;669;50.206;9.998;2023-03-30T03:26:42;1.90;;;1.80;;
1350;SDS011;669;50.206;9.998;2023-03-30T03:29:10;1.97;;;1.87;;
1350;SDS011;669;50.206;9.998;2023-03-30T03:31:39;2.23;;;2.03;;
1350;SDS011;669;50.206;9.998;2023-03-30T03:34:07;2.33;;;2.13;;
1350;SDS011;669;50.206;9.998;2023-03-30T03:36:35;2.10;;;2.00;;
1350;SDS011;669;50.206;9.998;2023-03-30T03:39:03;3.33;;;1.60;;
1350;SDS011;669;50.206;9.998;2023-03-30T03:41:31;1.97;;;1.83;;
1350;SDS011;669;50.206;9.998;2023-03-30T03:44:00;2.50;;;2.30;;
1350;SDS011;669;50.206;9.998;2023-03-30T03:46:27;4.00;;;2.13;;
1350;SDS011;669;50.206;9.998;2023-03-30T03:48:57;2.70;;;1.80;;
1350;SDS011;669;50.206;9.998;2023-03-30T03:51:24;2.83;;;2.17;;
1350;SDS011;669;50.206;9.998;2023-03-30T03:53:54;2.40;;;2.20;;
1350;SDS011;669;50.206;9.998;2023-03-30T03:56:22;2.23;;;2.10;;
1350;SDS011;669;50.206;9.998;2023-03-30T03:58:51;2.10;;;1.90;;
1350;SDS011;669;50.206;9.998;2023-03-30T04:01:19;5.17;;;2.20;;
1350;SDS011;669;50.206;9.998;2023-03-30T04:03:47;2.07;;;1.97;;
1350;SDS011;669;50.206;9.998;2023-03-30T04:06:17;2.10;;;1.90;;
1350;SDS011;669;50.206;9.998;2023-03-30T04:08:45;1.67;;;1.57;;
1350;SDS011;669;50.206;9.998;2023-03-30T04:11:12;1.63;;;1.53;;
1350;SDS011;669;50.206;9.998;2023-03-30T04:13:40;2.20;;;2.00;;
1350;SDS011;669;50.206;9.998;2023-03-30T04:16:08;2.10;;;1.90;;
1350;SDS011;669;50.206;9.998;2023-03-30T04:18:36;2.23;;;2.13;;
1350;SDS011;669;50.206;9.998;2023-03-30T04:21:06;2.03;;;1.83;;
1350;SDS011;669;50.206;9.998;2023-03-30T04:23:39;2.00;;;1.90;;
1350;SDS011;669;50.206;9.998;2023-03-30T04:26:11;2.23;;;2.00;;
1350;SDS011;669;50.206;9.998;2023-03-30T04:28:40;4.00;;;1.67;;
1350;SDS011;669;50.206;9.998;2023-03-30T04:31:08;1.80;;;1.70;;
1350;SDS011;669;50.206;9.998;2023-03-30T04:33:38;3.73;;;1.70;;
1350;SDS011;669;50.206;9.998;2023-03-30T04:36:17;2.00;;;1.90;;
1350;SDS011;669;50.206;9.998;2023-03-30T04:38:47;2.50;;;2.30;;
1350;SDS011;669;50.206;9.998;2023-03-30T04:41:24;3.13;;;2.83;;
1350;SDS011;669;50.206;9.998;2023-03-30T04:43:59;7.87;;;6.10;;
1350;SDS011;669;50.206;9.998;2023-03-30T04:46:28;5.20;;;4.60;;
1350;SDS011;669;50.206;9.998;2023-03-30T04:48:56;4.07;;;2.60;;
1350;SDS011;669;50.206;9.998;2023-03-30T04:51:24;3.50;;;3.20;;
1350;SDS011;669;50.206;9.998;2023-03-30T04:53:54;4.60;;;2.50;;
1350;SDS011;669;50.206;9.998;2023-03-30T04:56:22;2.43;;;2.23;;
1350;SDS011;669;50.206;9.998;2023-03-30T04:58:51;3.07;;;2.53;;
1350;SDS011;669;50.206;9.998;2023-03-30T05:01:19;2.47;;;2.27;;
1350;SDS011;669;50.206;9.998;2023-03-30T05:03:47;2.27;;;2.07;;
1350;SDS011;669;50.206;9.998;2023-03-30T05:06:15;1.90;;;1.63;;
1350;SDS011;669;50.206;9.998;2023-03-30T05:08:43;2.43;;;2.23;;
1350;SDS011;669;50.206;9.998;2023-03-30T05:11:12;4.57;;;3.40;;
1350;SDS011;669;50.206;9.998;2023-03-30T05:13:41;3.70;;;3.40;;
1350;SDS011;669;50.206;9.998;2023-03-30T05:16:09;6.93;;;4.23;;
1350;SDS011;669;50.206;9.998;2023-03-30T05:18:36;6.30;;;5.00;;
1350;SDS011;669;50.206;9.998;2023-03-30T05:21:05;7.43;;;6.40;;
1350;SDS011;669;50.206;9.998;2023-03-30T05:23:33;7.10;;;6.40;;
1350;SDS011;669;50.206;9.998;2023-03-30T05:26:01;13.93;;;9.27;;
1350;SDS011;669;50.206;9.998;2023-03-30T05:28:31;10.50;;;9.20;;
1350;SDS011;669;50.206;9.998;2023-03-30T05:30:59;7.83;;;7.03;;
1350;SDS011;669;50.206;9.998;2023-03-30T05:33:27;9.33;;;6.43;;
1350;SDS011;669;50.206;9.998;2023-03-30T05:35:55;7.87;;;5.57;;
1350;SDS011;669;50.206;9.998;2023-03-30T05:38:23;6.10;;;5.50;;
1350;SDS011;669;50.206;9.998;2023-03-30T05:40:51;6.90;;;5.27;;
1350;SDS011;669;50.206;9.998;2023-03-30T05:43:19;17.97;;;5.90;;
1350;SDS011;669;50.206;9.998;2023-03-30T05:45:48;4.23;;;3.87;;
1350;SDS011;669;50.206;9.998;2023-03-30T05:48:16;5.57;;;3.97;;
1350;SDS011;669;50.206;9.998;2023-03-30T05:50:45;5.43;;;4.20;;
1350;SDS011;669;50.206;9.998;2023-03-30T05:53:14;3.50;;;3.03;;
1350;SDS011;669;50.206;9.998;2023-03-30T05:55:42;4.40;;;3.60;;
1350;SDS011;669;50.206;9.998;2023-03-30T05:58:11;5.13;;;4.63;;
1350;SDS011;669;50.206;9.998;2023-03-30T06:00:39;4.57;;;4.20;;
1350;SDS011;669;50.206;9.998;2023-03-30T06:03:09;6.30;;;4.57;;
1350;SDS011;669;50.206;9.998;2023-03-30T06:05:37;10.10;;;7.00;;
1350;SDS011;669;50.206;9.998;2023-03-30T06:08:07;10.63;;;9.10;;
1350;SDS011;669;50.206;9.998;2023-03-30T06:10:35;7.63;;;6.17;;
1350;SDS011;669;50.206;9.998;2023-03-30T06:13:03;7.67;;;6.30;;
1350;SDS011;669;50.206;9.998;2023-03-30T06:15:31;8.80;;;6.10;;
1350;SDS011;669;50.206;9.998;2023-03-30T06:17:59;7.63;;;5.77;;
1350;SDS011;669;50.206;9.998;2023-03-30T06:20:30;6.80;;;5.40;;
1350;SDS011;669;50.206;9.998;2023-03-30T06:22:58;6.43;;;4.37;;
1350;SDS011;669;50.206;9.998;2023-03-30T06:25:26;8.13;;;5.40;;
1350;SDS011;669;50.206;9.998;2023-03-30T06:27:55;4.60;;;4.20;;
1350;SDS011;669;50.206;9.998;2023-03-30T06:30:23;5.57;;;4.70;;
1350;SDS011;669;50.206;9.998;2023-03-30T06:32:52;4.40;;;4.00;;
1350;SDS011;669;50.206;9.998;2023-03-30T06:35:20;4.60;;;4.20;;
1350;SDS011;669;50.206;9.998;2023-03-30T06:37:49;5.03;;;4.10;;
1350;SDS011;669;50.206;9.998;2023-03-30T06:40:18;4.50;;;4.10;;
1350;SDS011;669;50.206;9.998;2023-03-30T06:42:46;4.30;;;3.80;;
1350;SDS011;669;50.206;9.998;2023-03-30T06:45:14;4.83;;;4.17;;
1350;SDS011;669;50.206;9.998;2023-03-30T06:47:42;4.40;;;3.80;;
1350;SDS011;669;50.206;9.998;2023-03-30T06:50:10;5.77;;;3.77;;
1350;SDS011;669;50.206;9.998;2023-03-30T06:52:38;5.23;;;4.73;;
1350;SDS011;669;50.206;9.998;2023-03-30T06:55:08;5.47;;;3.83;;
1350;SDS011;669;50.206;9.998;2023-03-30T06:57:35;3.93;;;3.63;;
1350;SDS011;669;50.206;9.998;2023-03-30T07:00:04;3.83;;;3.53;;
1350;SDS011;669;50.206;9.998;2023-03-30T07:02:38;4.23;;;3.83;;
1350;SDS011;669;50.206;9.998;2023-03-30T07:05:06;3.90;;;3.40;;
1350;SDS011;669;50.206;9.998;2023-03-30T07:07:35;3.77;;;3.47;;
1350;SDS011;669;50.206;9.998;2023-03-30T07:10:03;4.73;;;4.20;;
1350;SDS011;669;50.206;9.998;2023-03-30T07:12:37;7.53;;;4.43;;
1350;SDS011;669;50.206;9.998;2023-03-30T07:15:06;5.90;;;4.03;;
1350;SDS011;669;50.206;9.998;2023-03-30T07:17:34;7.07;;;4.70;;
1350;SDS011;669;50.206;9.998;2023-03-30T07:20:03;4.77;;;4.27;;
1350;SDS011;669;50.206;9.998;2023-03-30T07:22:33;12.73;;;4.43;;
1350;SDS011;669;50.206;9.998;2023-03-30T07:25:01;6.60;;;4.80;;
1350;SDS011;669;50.206;9.998;2023-03-30T07:27:29;8.40;;;5.23;;
1350;SDS011;669;50.206;9.998;2023-03-30T07:29:59;8.23;;;5.33;;
1350;SDS011;669;50.206;9.998;2023-03-30T07:32:39;8.00;;;4.73;;
1350;SDS011;669;50.206;9.998;2023-03-30T07:35:07;5.90;;;4.40;;
1350;SDS011;669;50.206;9.998;2023-03-30T07:37:36;6.90;;;4.20;;
1350;SDS011;669;50.206;9.998;2023-03-30T07:40:05;6.40;;;3.90;;
1350;SDS011;669;50.206;9.998;2023-03-30T07:42:35;6.10;;;3.97;;
1350;SDS011;669;50.206;9.998;2023-03-30T07:45:05;5.13;;;3.40;;
1350;SDS011;669;50.206;9.998;2023-03-30T07:47:34;4.70;;;4.03;;
1350;SDS011;669;50.206;9.998;2023-03-30T07:50:02;6.33;;;3.80;;
1350;SDS011;669;50.206;9.998;2023-03-30T07:52:31;5.77;;;3.63;;
1350;SDS011;669;50.206;9.998;2023-03-30T07:54:59;9.00;;;3.97;;
1350;SDS011;669;50.206;9.998;2023-03-30T07:57:27;8.70;;;4.73;;
1350;SDS011;669;50.206;9.998;2023-03-30T07:59:55;7.60;;;3.30;;
1350;SDS011;669;50.206;9.998;2023-03-30T08:02:24;8.13;;;4.43;;
1350;SDS011;669;50.206;9.998;2023-03-30T08:04:52;7.93;;;4.90;;
1350;SDS011;669;50.206;9.998;2023-03-30T08:07:20;7.33;;;5.00;;
1350;SDS011;669;50.206;9.998;2023-03-30T08:09:48;8.67;;;4.83;;
1350;SDS011;669;50.206;9.998;2023-03-30T08:12:16;12.20;;;5.53;;
1350;SDS011;669;50.206;9.998;2023-03-30T08:14:44;10.97;;;5.13;;
1350;SDS011;669;50.206;9.998;2023-03-30T08:17:13;8.00;;;4.90;;
1350;SDS011;669;50.206;9.998;2023-03-30T08:19:42;9.40;;;5.60;;
1350;SDS011;669;50.206;9.998;2023-03-30T08:22:10;9.30;;;4.30;;
1350;SDS011;669;50.206;9.998;2023-03-30T08:24:38;9.23;;;6.03;;
1350;SDS011;669;50.206;9.998;2023-03-30T08:27:06;12.53;;;8.10;;
1350;SDS011;669;50.206;9.998;2023-03-30T08:29:33;10.87;;;7.00;;
1350;SDS011;669;50.206;9.998;2023-03-30T08:32:01;6.63;;;5.93;;
1350;SDS011;669;50.206;9.998;2023-03-30T08:34:29;8.00;;;4.97;;
1350;SDS011;669;50.206;9.998;2023-03-30T08:37:01;5.97;;;5.07;;
1350;SDS011;669;50.206;9.998;2023-03-30T08:39:29;8.40;;;6.27;;
1350;SDS011;669;50.206;9.998;2023-03-30T08:42:00;8.87;;;4.80;;
1350;SDS011;669;50.206;9.998;2023-03-30T08:44:35;7.40;;;4.93;;
1350;SDS011;669;50.206;9.998;2023-03-30T08:47:07;7.90;;;4.63;;
1350;SDS011;669;50.206;9.998;2023-03-30T08:49:39;7.07;;;6.13;;
1350;SDS011;669;50.206;9.998;2023-03-30T08:52:12;8.27;;;5.43;;
1350;SDS011;669;50.206;9.998;2023-03-30T08:54:48;7.90;;;5.40;;
1350;SDS011;669;50.206;9.998;2023-03-30T08:57:21;11.50;;;6.40;;
1350;SDS011;669;50.206;9.998;2023-03-30T09:00:02;10.47;;;5.50;;
1350;SDS011;669;50.206;9.998;2023-03-30T09:02:42;6.57;;;5.90;;
1350;SDS011;669;50.206;9.998;2023-03-30T09:05:14;6.93;;;5.20;;
1350;SDS011;669;50.206;9.998;2023-03-30T09:07:51;4.73;;;3.93;;
1350;SDS011;669;50.206;9.998;2023-03-30T09:10:26;5.57;;;4.70;;
1350;SDS011;669;50.206;9.998;2023-03-30T09:12:58;8.67;;;5.20;;
1350;SDS011;669;50.206;9.998;2023-03-30T09:15:28;4.63;;;4.13;;
1350;SDS011;669;50.206;9.998;2023-03-30T09:18:02;5.50;;;3.83;;
1350;SDS011;669;50.206;9.998;2023-03-30T09:20:36;8.97;;;5.37;;
1350;SDS011;669;50.206;9.998;2023-03-30T09:23:13;7.23;;;3.80;;
1350;SDS011;669;50.206;9.998;2023-03-30T09:25:44;9.47;;;4.00;;
1350;SDS011;669;50.206;9.998;2023-03-30T09:28:17;9.20;;;3.60;;
1350;SDS011;669;50.206;9.998;2023-03-30T09:30:51;7.17;;;3.80;;
1350;SDS011;669;50.206;9.998;2023-03-30T09:33:25;6.97;;;4.43;;
1350;SDS011;669;50.206;9.998;2023-03-30T09:36:03;5.20;;;3.30;;
1350;SDS011;669;50.206;9.998;2023-03-30T09:38:38;8.07;;;5.40;;
1350;SDS011;669;50.206;9.998;2023-03-30T09:41:13;16.30;;;5.03;;
1350;SDS011;669;50.206;9.998;2023-03-30T09:43:48;7.80;;;4.10;;
1350;SDS011;669;50.206;9.998;2023-03-30T09:46:17;6.80;;;3.70;;
1350;SDS011;669;50.206;9.998;2023-03-30T09:48:46;5.60;;;3.50;;
1350;SDS011;669;50.206;9.998;2023-03-30T09:51:17;7.90;;;4.00;;
1350;SDS011;669;50.206;9.998;2023-03-30T09:53:51;6.93;;;4.73;;
1350;SDS011;669;50.206;9.998;2023-03-30T09:56:26;13.37;;;4.23;;
1350;SDS011;669;50.206;9.998;2023-03-30T09:58:56;8.73;;;4.20;;
1350;SDS011;669;50.206;9.998;2023-03-30T10:01:33;6.23;;;4.27;;
1350;SDS011;669;50.206;9.998;2023-03-30T10:04:04;5.73;;;4.10;;
1350;SDS011;669;50.206;9.998;2023-03-30T10:06:36;6.80;;;4.63;;
1350;SDS011;669;50.206;9.998;2023-03-30T10:09:08;6.53;;;4.40;;
1350;SDS011;669;50.206;9.998;2023-03-30T10:11:39;14.10;;;4.93;;
1350;SDS011;669;50.206;9.998;2023-03-30T10:14:15;9.20;;;4.33;;
1350;SDS011;669;50.206;9.998;2023-03-30T10:16:55;8.30;;;4.20;;
1350;SDS011;669;50.206;9.998;2023-03-30T10:19:24;9.50;;;5.47;;
1350;SDS011;669;50.206;9.998;2023-03-30T10:21:53;9.23;;;5.07;;
1350;SDS011;669;50.206;9.998;2023-03-30T10:24:26;10.60;;;4.10;;
1350;SDS011;669;50.206;9.998;2023-03-30T10:26:57;10.63;;;4.13;;
1350;SDS011;669;50.206;9.998;2023-03-30T10:29:30;6.53;;;3.90;;
1350;SDS011;669;50.206;9.998;2023-03-30T10:31:59;5.60;;;3.50;;
1350;SDS011;669;50.206;9.998;2023-03-30T10:34:35;9.73;;;3.30;;
1350;SDS011;669;50.206;9.998;2023-03-30T10:37:08;4.77;;;3.53;;
1350;SDS011;669;50.206;9.998;2023-03-30T10:39:40;10.67;;;3.20;;
1350;SDS011;669;50.206;9.998;2023-03-30T10:42:10;8.57;;;4.10;;
1350;SDS011;669;50.206;9.998;2023-03-30T10:44:44;3.53;;;2.63;;
1350;SDS011;669;50.206;9.998;2023-03-30T10:47:19;3.90;;;3.13;;
1350;SDS011;669;50.206;9.998;2023-03-30T10:49:59;6.13;;;3.23;;
1350;SDS011;669;50.206;9.998;2023-03-30T10:52:35;7.73;;;4.10;;
1350;SDS011;669;50.206;9.998;2023-03-30T10:55:27;7.50;;;4.00;;
1350;SDS011;669;50.206;9.998;2023-03-30T10:58:02;8.10;;;4.07;;
1350;SDS011;669;50.206;9.998;2023-03-30T11:00:47;11.53;;;4.60;;
1350;SDS011;669;50.206;9.998;2023-03-30T11:03:26;8.60;;;3.70;;
1350;SDS011;669;50.206;9.998;2023-03-30T11:06:00;4.00;;;3.20;;
1350;SDS011;669;50.206;9.998;2023-03-30T11:08:32;5.00;;;3.50;;
1350;SDS011;669;50.206;9.998;2023-03-30T11:11:08;10.77;;;3.90;;
1350;SDS011;669;50.206;9.998;2023-03-30T11:13:43;4.73;;;3.20;;
1350;SDS011;669;50.206;9.998;2023-03-30T11:16:15;9.87;;;3.17;;
1350;SDS011;669;50.206;9.998;2023-03-30T11:18:47;7.50;;;2.60;;
1350;SDS011;669;50.206;9.998;2023-03-30T11:21:22;6.40;;;2.57;;
1350;SDS011;669;50.206;9.998;2023-03-30T11:23:54;3.50;;;2.60;;
1350;SDS011;669;50.206;9.998;2023-03-30T11:26:30;5.20;;;3.03;;
1350;SDS011;669;50.206;9.998;2023-03-30T11:29:17;2.60;;;2.40;;
1350;SDS011;669;50.206;9.998;2023-03-30T11:31:55;4.67;;;2.53;;
1350;SDS011;669;50.206;9.998;2023-03-30T11:34:36;5.50;;;3.13;;
1350;SDS011;669;50.206;9.998;2023-03-30T11:37:12;5.50;;;2.40;;
1350;SDS011;669;50.206;9.998;2023-03-30T11:39:54;3.10;;;2.70;;
1350;SDS011;669;50.206;9.998;2023-03-30T11:42:28;5.33;;;2.30;;
1350;SDS011;669;50.206;9.998;2023-03-30T11:44:57;5.73;;;2.43;;
1350;SDS011;669;50.206;9.998;2023-03-30T11:47:46;2.33;;;1.90;;
1350;SDS011;669;50.206;9.998;2023-03-30T11:50:27;2.40;;;2.20;;
1350;SDS011;669;50.206;9.998;2023-03-30T11:53:14;4.83;;;2.43;;
1350;SDS011;669;50.206;9.998;2023-03-30T11:55:50;4.90;;;2.80;;
1350;SDS011;669;50.206;9.998;2023-03-30T11:58:33;2.23;;;2.07;;
1350;SDS011;669;50.206;9.998;2023-03-30T12:01:06;6.30;;;1.77;;
1350;SDS011;669;50.206;9.998;2023-03-30T12:03:45;8.03;;;1.93;;
1350;SDS011;669;50.206;9.998;2023-03-30T12:06:19;6.10;;;2.40;;
1350;SDS011;669;50.206;9.998;2023-03-30T12:08:58;4.00;;;1.90;;
1350;SDS011;669;50.206;9.998;2023-03-30T12:11:38;3.00;;;1.80;;
1350;SDS011;669;50.206;9.998;2023-03-30T12:14:19;6.43;;;2.60;;
1350;SDS011;669;50.206;9.998;2023-03-30T12:17:13;3.40;;;1.87;;
1350;SDS011;669;50.206;9.998;2023-03-30T12:19:53;6.77;;;1.87;;
1350;SDS011;669;50.206;9.998;2023-03-30T12:22:28;4.80;;;2.33;;
1350;SDS011;669;50.206;9.998;2023-03-30T12:25:02;4.13;;;2.10;;
1350;SDS011;669;50.206;9.998;2023-03-30T12:27:56;3.60;;;2.50;;
1350;SDS011;669;50.206;9.998;2023-03-30T12:30:27;3.70;;;2.00;;
1350;SDS011;669;50.206;9.998;2023-03-30T12:32:58;6.10;;;2.57;;
1350;SDS011;669;50.206;9.998;2023-03-30T12:35:44;1.90;;;1.77;;
1350;SDS011;669;50.206;9.998;2023-03-30T12:38:33;2.37;;;1.53;;
1350;SDS011;669;50.206;9.998;2023-03-30T12:41:05;2.20;;;1.80;;
1350;SDS011;669;50.206;9.998;2023-03-30T12:43:43;5.00;;;2.70;;
1350;SDS011;669;50.206;9.998;2023-03-30T12:46:22;4.07;;;2.00;;
1350;SDS011;669;50.206;9.998;2023-03-30T12:48:56;5.07;;;2.13;;
1350;SDS011;669;50.206;9.998;2023-03-30T12:51:49;4.43;;;1.87;;
1350;SDS011;669;50.206;9.998;2023-03-30T12:54:27;5.90;;;2.80;;
1350;SDS011;669;50.206;9.998;2023-03-30T12:57:26;4.20;;;2.00;;
1350;SDS011;669;50.206;9.998;2023-03-30T13:00:06;7.60;;;1.93;;
1350;SDS011;669;50.206;9.998;2023-03-30T13:03:13;4.27;;;1.50;;
1350;SDS011;669;50.206;9.998;2023-03-30T13:05:56;6.03;;;2.00;;
1350;SDS011;669;50.206;9.998;2023-03-30T13:08:28;6.10;;;1.80;;
1350;SDS011;669;50.206;9.998;2023-03-30T13:11:06;4.67;;;1.73;;
1350;SDS011;669;50.206;9.998;2023-03-30T13:17:04;3.10;;;1.70;;
1350;SDS011;669;50.206;9.998;2023-03-30T13:19:42;4.07;;;1.60;;
1350;SDS011;669;50.206;9.998;2023-03-30T13:22:17;3.43;;;1.30;;
1350;SDS011;669;50.206;9.998;2023-03-30T13:24:57;2.17;;;1.70;;
1350;SDS011;669;50.206;9.998;2023-03-30T13:27:29;3.63;;;1.80;;
1350;SDS011;669;50.206;9.998;2023-03-30T13:30:02;3.40;;;1.97;;
1350;SDS011;669;50.206;9.998;2023-03-30T13:32:39;2.20;;;1.90;;
1350;SDS011;669;50.206;9.998;2023-03-30T13:35:27;3.93;;;1.27;;
1350;SDS011;669;50.206;9.998;2023-03-30T13:38:18;2.77;;;1.70;;
1350;SDS011;669;50.206;9.998;2023-03-30T13:41:06;4.63;;;1.90;;
1350;SDS011;669;50.206;9.998;2023-03-30T13:43:46;5.27;;;2.23;;
1350;SDS011;669;50.206;9.998;2023-03-30T13:46:26;4.13;;;1.60;;
1350;SDS011;669;50.206;9.998;2023-03-30T13:49:03;3.17;;;1.50;;
1350;SDS011;669;50.206;9.998;2023-03-30T13:51:42;1.23;;;1.17;;
1350;SDS011;669;50.206;9.998;2023-03-30T13:54:12;1.07;;;0.80;;
1350;SDS011;669;50.206;9.998;2023-03-30T13:56:44;2.43;;;1.07;;
1350;SDS011;669;50.206;9.998;2023-03-30T13:59:15;3.20;;;1.10;;
1350;SDS011;669;50.206;9.998;2023-03-30T14:01:46;2.20;;;1.00;;
1350;SDS011;669;50.206;9.998;2023-03-30T14:04:17;0.70;;;0.70;;
1350;SDS011;669;50.206;9.998;2023-03-30T14:06:47;1.80;;;0.97;;
1350;SDS011;669;50.206;9.998;2023-03-30T14:09:18;1.70;;;1.00;;
1350;SDS011;669;50.206;9.998;2023-03-30T14:11:48;4.03;;;1.37;;
1350;SDS011;669;50.206;9.998;2023-03-30T14:14:19;5.40;;;2.90;;
1350;SDS011;669;50.206;9.998;2023-03-30T14:16:50;14.90;;;8.20;;
1350;SDS011;669;50.206;9.998;2023-03-30T14:19:20;7.67;;;5.30;;
1350;SDS011;669;50.206;9.998;2023-03-30T14:21:52;4.93;;;3.80;;
1350;SDS011;669;50.206;9.998;2023-03-30T14:24:27;2.40;;;2.17;;
1350;SDS011;669;50.206;9.998;2023-03-30T14:27:00;2.07;;;1.87;;
1350;SDS011;669;50.206;9.998;2023-03-30T14:29:30;1.10;;;1.00;;
1350;SDS011;669;50.206;9.998;2023-03-30T14:31:58;1.80;;;1.50;;
1350;SDS011;669;50.206;9.998;2023-03-30T14:34:31;1.43;;;1.13;;
1350;SDS011;669;50.206;9.998;2023-03-30T14:37:02;1.67;;;0.87;;
1350;SDS011;669;50.206;9.998;2023-03-30T14:39:32;2.93;;;1.30;;
1350;SDS011;669;50.206;9.998;2023-03-30T14:42:08;2.30;;;1.10;;
1350;SDS011;669;50.206;9.998;2023-03-30T14:44:40;6.73;;;1.10;;
1350;SDS011;669;50.206;9.998;2023-03-30T14:47:08;1.20;;;0.83;;
1350;SDS011;669;50.206;9.998;2023-03-30T14:49:36;0.50;;;0.50;;
1350;SDS011;669;50.206;9.998;2023-03-30T14:52:08;0.90;;;0.90;;
1350;SDS011;669;50.206;9.998;2023-03-30T14:54:41;0.83;;;0.83;;
1350;SDS011;669;50.206;9.998;2023-03-30T14:57:27;0.83;;;0.83;;
1350;SDS011;669;50.206;9.998;2023-03-30T14:59:57;2.03;;;1.17;;
1350;SDS011;669;50.206;9.998;2023-03-30T15:02:27;5.13;;;0.60;;
1350;SDS011;669;50.206;9.998;2023-03-30T15:04:58;1.27;;;0.50;;
1350;SDS011;669;50.206;9.998;2023-03-30T15:07:29;2.00;;;0.77;;
1350;SDS011;669;50.206;9.998;2023-03-30T15:09:58;4.47;;;0.50;;
1350;SDS011;669;50.206;9.998;2023-03-30T15:12:28;3.17;;;0.77;;
1350;SDS011;669;50.206;9.998;2023-03-30T15:15:00;0.50;;;0.50;;
1350;SDS011;669;50.206;9.998;2023-03-30T15:17:31;2.57;;;0.70;;
1350;SDS011;669;50.206;9.998;2023-03-30T15:20:01;1.70;;;0.87;;
1350;SDS011;669;50.206;9.998;2023-03-30T15:22:33;0.80;;;0.80;;
1350;SDS011;669;50.206;9.998;2023-03-30T15:25:04;3.03;;;1.17;;
1350;SDS011;669;50.206;9.998;2023-03-30T15:27:35;0.67;;;0.40;;
1350;SDS011;669;50.206;9.998;2023-03-30T15:30:06;1.13;;;0.87;;
1350;SDS011;669;50.206;9.998;2023-03-30T15:32:40;2.50;;;1.27;;
1350;SDS011;669;50.206;9.998;2023-03-30T15:35:15;0.73;;;0.70;;
1350;SDS011;669;50.206;9.998;2023-03-30T15:37:53;2.20;;;1.10;;
1350;SDS011;669;50.206;9.998;2023-03-30T15:40:27;1.40;;;0.77;;
1350;SDS011;669;50.206;9.998;2023-03-30T15:43:10;4.13;;;1.40;;
1350;SDS011;669;50.206;9.998;2023-03-30T15:45:39;0.90;;;0.70;;
1350;SDS011;669;50.206;9.998;2023-03-30T15:48:12;0.50;;;0.50;;
1350;SDS011;669;50.206;9.998;2023-03-30T15:50:42;2.47;;;1.33;;
1350;SDS011;669;50.206;9.998;2023-03-30T15:53:16;2.70;;;0.90;;
1350;SDS011;669;50.206;9.998;2023-03-30T15:55:47;1.73;;;1.27;;
1350;SDS011;669;50.206;9.998;2023-03-30T15:58:18;1.80;;;1.40;;
1350;SDS011;669;50.206;9.998;2023-03-30T16:00:50;0.70;;;0.63;;
1350;SDS011;669;50.206;9.998;2023-03-30T16:03:19;1.10;;;0.77;;
1350;SDS011;669;50.206;9.998;2023-03-30T16:05:59;2.20;;;1.20;;
1350;SDS011;669;50.206;9.998;2023-03-30T16:08:29;1.43;;;1.13;;
1350;SDS011;669;50.206;9.998;2023-03-30T16:10:56;1.33;;;1.17;;